• Join FlightAware (Why Join?)
  • Login
  • US Flag 
04:19AM EDT


 

Airport Tracker/Info


-or-


 

Live Flight TrackerFlight Track Log ✈ FLG3709 ✈ 18-Apr-2013 ✈ KPIT - KCVG

Flight Track Log - Related Links

Times and Time Zones

All times are in EDT time to prevent confusion due to time zone crossing. See the FLG3709 flight status page for this flight to view local times or setup timezone preferences in your user account.

Time Position Orientation Groundspeed Altitude Reporting Facility
EDT Latitude Longitude Course Direction KTS MPH feet Rate Location/Type
07:16AM 40.5414 -80.1078 270° West 220 253 4,500  Level Cleveland Center
07:17AM 40.4667 -80.5628 270° West  Level FlightAware Approximate
07:17AM 40.5772 -80.1922 299° West 120 138 7,400  Level Cleveland Center
07:18AM 40.4667 -80.6789 270° West  Level FlightAware Approximate
07:18AM 40.5672 -80.2878 262° West 179 206 10,000  Level Cleveland Center
07:19AM 40.4667 -80.7950 270° West  Level FlightAware Approximate
07:19AM 40.5631 -80.3944 267° West 222 255 11,600  Level Cleveland Center
07:20AM 40.4667 -80.9111 270° West  Level FlightAware Approximate
07:20AM 40.5569 -80.5147 266° West 277 319 13,300  Level Cleveland Center
07:21AM 40.4667 -81.0273 270° West  Level FlightAware Approximate
07:21AM 40.5508 -80.6378 266° West 321 369 15,500  Level Cleveland Center
07:22AM 40.5444 -80.7633 266° West 346 398 17,000 1,440 Climbing Cleveland Center
07:23AM 40.5358 -80.8972 265° West 360 414 18,400 1,320 Climbing Cleveland Center
07:24AM 40.5292 -81.0283 266° West 366 421 19,700 480 Climbing Cleveland Center
07:26AM 40.5097 -81.3092 265° West 390 449 20,000 60 Climbing Indianapolis Center
07:27AM 40.5014 -81.4589 266° West 403 464 20,000  Level Indianapolis Center
07:28AM 40.4911 -81.6081 265° West 404 465 20,000  Level Indianapolis Center
07:29AM 40.4450 -81.7481 247° West 412 474 20,000  Level Indianapolis Center
07:30AM 40.3958 -81.8825 244° Southwest 407 468 20,000  Level Indianapolis Center
07:31AM 40.3464 -82.0175 244° Southwest 407 468 20,000  Level Indianapolis Center
07:32AM 40.2961 -82.1533 244° Southwest 407 468 20,000  Level Indianapolis Center
07:33AM 40.2467 -82.2886 244° Southwest 408 470 20,000  Level Indianapolis Center
07:34AM 40.1972 -82.4211 244° Southwest 407 468 20,000  Level Indianapolis Center
07:35AM 40.1472 -82.5528 244° Southwest 402 463 20,000  Level Indianapolis Center
07:36AM 40.0900 -82.7075 244° Southwest 401 461 20,000  Level Indianapolis Center
07:37AM 40.0389 -82.8394 243° Southwest 403 464 20,000  Level Indianapolis Center
07:38AM 39.9900 -82.9700 244° Southwest 399 459 20,000 -180 Level Indianapolis Center
07:39AM 39.9381 -83.0994 242° Southwest 398 458 19,700 -600 Descending Indianapolis Center
07:40AM 39.8833 -83.2292 241° Southwest 402 463 18,800 -1,080 Descending Indianapolis Center
07:41AM 39.8300 -83.3533 241° Southwest 392 451 17,600 -1,080 Descending Indianapolis Center
07:42AM 39.7856 -83.4589 241° Southwest 384 442 16,700 -1,020 Descending Indianapolis Center
07:43AM 39.7331 -83.5822 241° Southwest 378 435 15,600 -1,140 Descending Indianapolis Center
07:44AM 39.6819 -83.7019 241° Southwest 374 430 14,400 -1,140 Descending Indianapolis Center
07:45AM 39.6314 -83.8206 241° Southwest 372 428 13,300 -1,140 Descending Indianapolis Center
07:46AM 39.5758 -83.9328 237° Southwest 365 420 12,200 -1,140 Descending Indianapolis Center
07:47AM 39.4978 -84.0431 227° Southwest 355 409 11,000 -660 Descending Indianapolis Center
07:48AM 39.4414 -84.1256 229° Southwest 303 349 10,900 -840 Descending Indianapolis Center
07:49AM 39.4167 -84.2111 250° West 256 295 9,400 -960 Descending Indianapolis Center
07:50AM 39.3925 -84.2875 248° West 232 267 9,000 -600 Descending Indianapolis Center
07:51AM 39.3669 -84.3694 248° West 237 273 8,200 -900 Descending Indianapolis Center
07:52AM 39.3317 -84.4375 236° Southwest 232 267 7,200 -1,080 Descending Indianapolis Center
07:53AM 39.2933 -84.5006 232° Southwest 225 259 6,100 -1,500 Descending Indianapolis Center
07:54AM 39.2581 -84.5611 233° Southwest 217 250 4,200 -1,140 Descending Indianapolis Center
07:55AM 39.2244 -84.6189 233° Southwest 216 249 3,800 -780 Descending Indianapolis Center
07:56AM 39.2000 -84.6333 205° Southwest 183 211 3,000 -840 Descending Cincinnati TRACON
07:57AM 39.1500 -84.6667 207° Southwest 135 155 2,500 -540 Descending Cincinnati TRACON